Terminal Aerodrome Forecast
Issued by NWS

Home | Current Version | Previous Version | Text Only | Print | Product List | Glossary On
Versions: 1 2 3 4 5 6 7 8 9 10 11 12 13 14 15 16
000
FTUS43 KLSX 271700
TAFUIN
TAF
KUIN 271720Z 2718/2818 30012KT P6SM OVC015
     FM280000 32007KT P6SM SCT025 BKN120
     FM280400 31005KT P6SM SKC
      TEMPO 2809/2813 4SM BR=

USA.gov is the U.S. government's official web portal to all federal, state and local government web resources and services.